sensor_id;sensor_type;location;lat;lon;timestamp;P1;durP1;ratioP1;P2;durP2;ratioP2
20945;SDS011;10632;51.276;7.116;2022-10-22T00:01:08;6.97;;;0.80;;
20945;SDS011;10632;51.276;7.116;2022-10-22T00:03:35;1.20;;;0.50;;
20945;SDS011;10632;51.276;7.116;2022-10-22T00:06:02;3.20;;;0.82;;
20945;SDS011;10632;51.276;7.116;2022-10-22T00:08:31;5.68;;;1.02;;
20945;SDS011;10632;51.276;7.116;2022-10-22T00:10:58;3.45;;;0.98;;
20945;SDS011;10632;51.276;7.116;2022-10-22T00:13:24;1.20;;;0.80;;
20945;SDS011;10632;51.276;7.116;2022-10-22T00:15:52;2.00;;;0.88;;
20945;SDS011;10632;51.276;7.116;2022-10-22T00:18:19;2.95;;;1.15;;
20945;SDS011;10632;51.276;7.116;2022-10-22T00:20:45;1.73;;;0.80;;
20945;SDS011;10632;51.276;7.116;2022-10-22T00:23:12;1.92;;;0.82;;
20945;SDS011;10632;51.276;7.116;2022-10-22T00:25:41;2.22;;;0.80;;
20945;SDS011;10632;51.276;7.116;2022-10-22T00:28:07;1.33;;;0.60;;
20945;SDS011;10632;51.276;7.116;2022-10-22T00:30:35;1.73;;;0.70;;
20945;SDS011;10632;51.276;7.116;2022-10-22T00:33:02;7.75;;;1.00;;
20945;SDS011;10632;51.276;7.116;2022-10-22T00:35:29;1.60;;;0.70;;
20945;SDS011;10632;51.276;7.116;2022-10-22T00:37:56;1.73;;;0.68;;
20945;SDS011;10632;51.276;7.116;2022-10-22T00:40:23;3.17;;;0.65;;
20945;SDS011;10632;51.276;7.116;2022-10-22T00:42:52;1.17;;;0.70;;
20945;SDS011;10632;51.276;7.116;2022-10-22T00:45:21;1.80;;;0.50;;
20945;SDS011;10632;51.276;7.116;2022-10-22T00:47:51;1.45;;;0.73;;
20945;SDS011;10632;51.276;7.116;2022-10-22T00:50:24;4.28;;;1.05;;
20945;SDS011;10632;51.276;7.116;2022-10-22T00:52:55;5.32;;;1.80;;
20945;SDS011;10632;51.276;7.116;2022-10-22T00:55:23;1.55;;;0.55;;
20945;SDS011;10632;51.276;7.116;2022-10-22T00:57:54;3.20;;;0.90;;
20945;SDS011;10632;51.276;7.116;2022-10-22T01:00:23;18.75;;;1.10;;
20945;SDS011;10632;51.276;7.116;2022-10-22T01:02:50;2.88;;;0.65;;
20945;SDS011;10632;51.276;7.116;2022-10-22T01:05:18;2.40;;;0.82;;
20945;SDS011;10632;51.276;7.116;2022-10-22T01:07:47;1.63;;;0.77;;
20945;SDS011;10632;51.276;7.116;2022-10-22T01:10:17;7.00;;;0.80;;
20945;SDS011;10632;51.276;7.116;2022-10-22T01:12:56;0.90;;;0.50;;
20945;SDS011;10632;51.276;7.116;2022-10-22T01:15:31;3.25;;;1.00;;
20945;SDS011;10632;51.276;7.116;2022-10-22T01:18:04;9.80;;;0.82;;
20945;SDS011;10632;51.276;7.116;2022-10-22T01:20:40;2.78;;;0.90;;
20945;SDS011;10632;51.276;7.116;2022-10-22T01:23:23;1.50;;;0.73;;
20945;SDS011;10632;51.276;7.116;2022-10-22T01:26:02;1.13;;;0.40;;
20945;SDS011;10632;51.276;7.116;2022-10-22T01:28:48;1.27;;;0.60;;
20945;SDS011;10632;51.276;7.116;2022-10-22T01:31:21;3.38;;;0.70;;
20945;SDS011;10632;51.276;7.116;2022-10-22T01:33:51;1.38;;;0.77;;
20945;SDS011;10632;51.276;7.116;2022-10-22T01:36:19;2.35;;;0.80;;
20945;SDS011;10632;51.276;7.116;2022-10-22T01:38:47;1.65;;;0.60;;
20945;SDS011;10632;51.276;7.116;2022-10-22T01:41:16;2.33;;;0.80;;
20945;SDS011;10632;51.276;7.116;2022-10-22T01:43:42;2.90;;;0.90;;
20945;SDS011;10632;51.276;7.116;2022-10-22T01:46:11;6.72;;;1.15;;
20945;SDS011;10632;51.276;7.116;2022-10-22T01:48:44;5.07;;;1.10;;
20945;SDS011;10632;51.276;7.116;2022-10-22T01:51:22;1.38;;;0.75;;
20945;SDS011;10632;51.276;7.116;2022-10-22T01:54:02;2.38;;;0.77;;
20945;SDS011;10632;51.276;7.116;2022-10-22T01:56:41;1.83;;;0.60;;
20945;SDS011;10632;51.276;7.116;2022-10-22T01:59:20;2.05;;;0.82;;
20945;SDS011;10632;51.276;7.116;2022-10-22T02:01:57;1.67;;;0.60;;
20945;SDS011;10632;51.276;7.116;2022-10-22T02:04:31;3.88;;;0.90;;
20945;SDS011;10632;51.276;7.116;2022-10-22T02:07:04;2.38;;;0.77;;
20945;SDS011;10632;51.276;7.116;2022-10-22T02:09:33;2.92;;;0.80;;
20945;SDS011;10632;51.276;7.116;2022-10-22T02:12:02;1.88;;;0.80;;
20945;SDS011;10632;51.276;7.116;2022-10-22T02:14:31;2.10;;;0.90;;
20945;SDS011;10632;51.276;7.116;2022-10-22T02:17:02;2.47;;;0.93;;
20945;SDS011;10632;51.276;7.116;2022-10-22T02:19:37;1.75;;;0.73;;
20945;SDS011;10632;51.276;7.116;2022-10-22T02:22:09;1.08;;;0.43;;
20945;SDS011;10632;51.276;7.116;2022-10-22T02:24:36;4.18;;;1.00;;
20945;SDS011;10632;51.276;7.116;2022-10-22T02:27:06;1.35;;;0.70;;
20945;SDS011;10632;51.276;7.116;2022-10-22T02:29:38;3.40;;;1.10;;
20945;SDS011;10632;51.276;7.116;2022-10-22T02:32:10;1.33;;;0.70;;
20945;SDS011;10632;51.276;7.116;2022-10-22T02:34:42;2.15;;;0.60;;
20945;SDS011;10632;51.276;7.116;2022-10-22T02:37:11;3.38;;;0.88;;
20945;SDS011;10632;51.276;7.116;2022-10-22T02:39:38;2.35;;;0.60;;
20945;SDS011;10632;51.276;7.116;2022-10-22T02:42:07;2.30;;;1.05;;
20945;SDS011;10632;51.276;7.116;2022-10-22T02:44:36;2.75;;;1.00;;
20945;SDS011;10632;51.276;7.116;2022-10-22T02:47:03;0.88;;;0.50;;
20945;SDS011;10632;51.276;7.116;2022-10-22T02:49:31;2.85;;;0.77;;
20945;SDS011;10632;51.276;7.116;2022-10-22T02:51:59;2.60;;;0.60;;
20945;SDS011;10632;51.276;7.116;2022-10-22T02:54:26;2.08;;;0.80;;
20945;SDS011;10632;51.276;7.116;2022-10-22T02:56:53;1.73;;;0.63;;
20945;SDS011;10632;51.276;7.116;2022-10-22T02:59:20;2.72;;;1.27;;
20945;SDS011;10632;51.276;7.116;2022-10-22T03:01:47;3.80;;;1.10;;
20945;SDS011;10632;51.276;7.116;2022-10-22T03:04:14;0.90;;;0.57;;
20945;SDS011;10632;51.276;7.116;2022-10-22T03:06:42;1.27;;;0.73;;
20945;SDS011;10632;51.276;7.116;2022-10-22T03:09:12;2.13;;;1.00;;
20945;SDS011;10632;51.276;7.116;2022-10-22T03:11:39;0.60;;;0.40;;
20945;SDS011;10632;51.276;7.116;2022-10-22T03:14:06;1.55;;;0.60;;
20945;SDS011;10632;51.276;7.116;2022-10-22T03:16:33;2.75;;;1.10;;
20945;SDS011;10632;51.276;7.116;2022-10-22T03:19:00;1.48;;;0.73;;
20945;SDS011;10632;51.276;7.116;2022-10-22T03:21:29;0.95;;;0.60;;
20945;SDS011;10632;51.276;7.116;2022-10-22T03:24:02;2.88;;;0.90;;
20945;SDS011;10632;51.276;7.116;2022-10-22T03:26:34;2.75;;;1.05;;
20945;SDS011;10632;51.276;7.116;2022-10-22T03:29:02;1.98;;;0.80;;
20945;SDS011;10632;51.276;7.116;2022-10-22T03:31:29;3.45;;;0.93;;
20945;SDS011;10632;51.276;7.116;2022-10-22T03:33:56;4.65;;;0.88;;
20945;SDS011;10632;51.276;7.116;2022-10-22T03:36:23;1.98;;;0.93;;
20945;SDS011;10632;51.276;7.116;2022-10-22T03:38:51;7.47;;;1.55;;
20945;SDS011;10632;51.276;7.116;2022-10-22T03:41:19;2.88;;;1.15;;
20945;SDS011;10632;51.276;7.116;2022-10-22T03:43:46;2.90;;;0.82;;
20945;SDS011;10632;51.276;7.116;2022-10-22T03:46:16;3.05;;;0.70;;
20945;SDS011;10632;51.276;7.116;2022-10-22T03:48:44;3.63;;;1.00;;
20945;SDS011;10632;51.276;7.116;2022-10-22T03:51:11;3.85;;;0.90;;
20945;SDS011;10632;51.276;7.116;2022-10-22T03:53:38;3.03;;;0.70;;
20945;SDS011;10632;51.276;7.116;2022-10-22T03:56:07;1.85;;;0.90;;
20945;SDS011;10632;51.276;7.116;2022-10-22T03:58:36;2.00;;;0.60;;
20945;SDS011;10632;51.276;7.116;2022-10-22T04:01:04;1.63;;;0.88;;
20945;SDS011;10632;51.276;7.116;2022-10-22T04:03:31;1.27;;;0.70;;
20945;SDS011;10632;51.276;7.116;2022-10-22T04:06:00;3.08;;;1.08;;
20945;SDS011;10632;51.276;7.116;2022-10-22T04:08:27;3.45;;;1.02;;
20945;SDS011;10632;51.276;7.116;2022-10-22T04:10:55;2.28;;;0.85;;
20945;SDS011;10632;51.276;7.116;2022-10-22T04:13:22;1.73;;;0.98;;
20945;SDS011;10632;51.276;7.116;2022-10-22T04:15:51;0.90;;;0.63;;
20945;SDS011;10632;51.276;7.116;2022-10-22T04:18:18;1.95;;;1.05;;
20945;SDS011;10632;51.276;7.116;2022-10-22T04:20:45;3.63;;;1.08;;
20945;SDS011;10632;51.276;7.116;2022-10-22T04:23:13;3.10;;;1.00;;
20945;SDS011;10632;51.276;7.116;2022-10-22T04:25:40;2.90;;;1.30;;
20945;SDS011;10632;51.276;7.116;2022-10-22T04:28:06;1.48;;;0.88;;
20945;SDS011;10632;51.276;7.116;2022-10-22T04:30:34;1.25;;;0.50;;
20945;SDS011;10632;51.276;7.116;2022-10-22T04:33:04;5.63;;;1.10;;
20945;SDS011;10632;51.276;7.116;2022-10-22T04:35:31;2.80;;;0.90;;
20945;SDS011;10632;51.276;7.116;2022-10-22T04:37:57;2.20;;;1.02;;
20945;SDS011;10632;51.276;7.116;2022-10-22T04:40:25;1.42;;;0.65;;
20945;SDS011;10632;51.276;7.116;2022-10-22T04:42:53;2.25;;;1.20;;
20945;SDS011;10632;51.276;7.116;2022-10-22T04:45:19;1.75;;;1.00;;
20945;SDS011;10632;51.276;7.116;2022-10-22T04:47:49;2.22;;;1.05;;
20945;SDS011;10632;51.276;7.116;2022-10-22T04:50:18;1.60;;;0.57;;
20945;SDS011;10632;51.276;7.116;2022-10-22T04:52:49;3.03;;;1.20;;
20945;SDS011;10632;51.276;7.116;2022-10-22T04:55:18;1.58;;;0.93;;
20945;SDS011;10632;51.276;7.116;2022-10-22T04:57:45;1.63;;;0.80;;
20945;SDS011;10632;51.276;7.116;2022-10-22T05:00:12;2.25;;;0.82;;
20945;SDS011;10632;51.276;7.116;2022-10-22T05:02:41;3.55;;;1.13;;
20945;SDS011;10632;51.276;7.116;2022-10-22T05:05:13;4.53;;;1.05;;
20945;SDS011;10632;51.276;7.116;2022-10-22T05:07:42;6.90;;;0.98;;
20945;SDS011;10632;51.276;7.116;2022-10-22T05:10:09;2.65;;;1.17;;
20945;SDS011;10632;51.276;7.116;2022-10-22T05:12:36;5.38;;;1.27;;
20945;SDS011;10632;51.276;7.116;2022-10-22T05:15:04;1.83;;;0.63;;
20945;SDS011;10632;51.276;7.116;2022-10-22T05:17:35;2.42;;;1.13;;
20945;SDS011;10632;51.276;7.116;2022-10-22T05:20:02;2.53;;;1.08;;
20945;SDS011;10632;51.276;7.116;2022-10-22T05:22:32;1.98;;;1.05;;
20945;SDS011;10632;51.276;7.116;2022-10-22T05:25:00;2.67;;;1.02;;
20945;SDS011;10632;51.276;7.116;2022-10-22T05:27:27;1.55;;;0.80;;
20945;SDS011;10632;51.276;7.116;2022-10-22T05:29:56;3.40;;;1.10;;
20945;SDS011;10632;51.276;7.116;2022-10-22T05:32:23;1.45;;;0.70;;
20945;SDS011;10632;51.276;7.116;2022-10-22T05:34:51;1.60;;;0.80;;
20945;SDS011;10632;51.276;7.116;2022-10-22T05:37:18;1.20;;;0.65;;
20945;SDS011;10632;51.276;7.116;2022-10-22T05:39:44;2.38;;;0.57;;
20945;SDS011;10632;51.276;7.116;2022-10-22T05:42:13;4.05;;;1.00;;
20945;SDS011;10632;51.276;7.116;2022-10-22T05:44:40;2.40;;;0.85;;
20945;SDS011;10632;51.276;7.116;2022-10-22T05:47:10;5.30;;;1.13;;
20945;SDS011;10632;51.276;7.116;2022-10-22T05:49:37;1.33;;;0.90;;
20945;SDS011;10632;51.276;7.116;2022-10-22T05:52:04;1.77;;;0.90;;
20945;SDS011;10632;51.276;7.116;2022-10-22T05:54:30;2.45;;;1.20;;
20945;SDS011;10632;51.276;7.116;2022-10-22T05:56:58;3.00;;;1.20;;
20945;SDS011;10632;51.276;7.116;2022-10-22T05:59:26;3.80;;;1.23;;
20945;SDS011;10632;51.276;7.116;2022-10-22T06:01:53;1.42;;;0.77;;
20945;SDS011;10632;51.276;7.116;2022-10-22T06:04:20;3.50;;;1.25;;
20945;SDS011;10632;51.276;7.116;2022-10-22T06:06:49;2.20;;;1.20;;
20945;SDS011;10632;51.276;7.116;2022-10-22T06:09:19;2.70;;;1.10;;
20945;SDS011;10632;51.276;7.116;2022-10-22T06:11:49;1.88;;;1.05;;
20945;SDS011;10632;51.276;7.116;2022-10-22T06:14:17;2.78;;;1.23;;
20945;SDS011;10632;51.276;7.116;2022-10-22T06:16:46;1.80;;;0.88;;
20945;SDS011;10632;51.276;7.116;2022-10-22T06:19:13;1.85;;;1.02;;
20945;SDS011;10632;51.276;7.116;2022-10-22T06:21:42;1.80;;;0.80;;
20945;SDS011;10632;51.276;7.116;2022-10-22T06:24:10;1.55;;;0.82;;
20945;SDS011;10632;51.276;7.116;2022-10-22T06:26:37;2.00;;;0.90;;
20945;SDS011;10632;51.276;7.116;2022-10-22T06:29:04;2.28;;;0.82;;
20945;SDS011;10632;51.276;7.116;2022-10-22T06:31:31;1.95;;;0.88;;
20945;SDS011;10632;51.276;7.116;2022-10-22T06:34:02;4.03;;;1.35;;
20945;SDS011;10632;51.276;7.116;2022-10-22T06:36:33;2.40;;;1.33;;
20945;SDS011;10632;51.276;7.116;2022-10-22T06:38:59;1.92;;;0.82;;
20945;SDS011;10632;51.276;7.116;2022-10-22T06:41:26;1.65;;;0.80;;
20945;SDS011;10632;51.276;7.116;2022-10-22T06:43:53;13.82;;;1.00;;
20945;SDS011;10632;51.276;7.116;2022-10-22T06:46:21;2.47;;;1.13;;
20945;SDS011;10632;51.276;7.116;2022-10-22T06:48:49;2.17;;;1.10;;
20945;SDS011;10632;51.276;7.116;2022-10-22T06:51:18;3.75;;;1.10;;
20945;SDS011;10632;51.276;7.116;2022-10-22T06:53:46;2.58;;;0.90;;
20945;SDS011;10632;51.276;7.116;2022-10-22T06:56:14;2.60;;;1.20;;
20945;SDS011;10632;51.276;7.116;2022-10-22T06:58:45;2.47;;;1.35;;
20945;SDS011;10632;51.276;7.116;2022-10-22T07:01:13;2.65;;;1.00;;
20945;SDS011;10632;51.276;7.116;2022-10-22T07:03:45;2.28;;;1.00;;
20945;SDS011;10632;51.276;7.116;2022-10-22T07:06:12;2.08;;;0.77;;
20945;SDS011;10632;51.276;7.116;2022-10-22T07:08:41;2.08;;;0.95;;
20945;SDS011;10632;51.276;7.116;2022-10-22T07:11:09;2.63;;;1.05;;
20945;SDS011;10632;51.276;7.116;2022-10-22T07:13:37;1.92;;;0.85;;
20945;SDS011;10632;51.276;7.116;2022-10-22T07:16:04;2.33;;;1.35;;
20945;SDS011;10632;51.276;7.116;2022-10-22T07:18:32;1.40;;;0.73;;
20945;SDS011;10632;51.276;7.116;2022-10-22T07:21:00;5.15;;;0.85;;
20945;SDS011;10632;51.276;7.116;2022-10-22T07:23:27;2.80;;;1.30;;
20945;SDS011;10632;51.276;7.116;2022-10-22T07:25:56;1.98;;;1.13;;
20945;SDS011;10632;51.276;7.116;2022-10-22T07:28:26;2.67;;;0.90;;
20945;SDS011;10632;51.276;7.116;2022-10-22T07:30:53;3.85;;;0.93;;
20945;SDS011;10632;51.276;7.116;2022-10-22T07:33:20;2.35;;;0.90;;
20945;SDS011;10632;51.276;7.116;2022-10-22T07:35:47;2.10;;;1.05;;
20945;SDS011;10632;51.276;7.116;2022-10-22T07:38:14;1.92;;;0.98;;
20945;SDS011;10632;51.276;7.116;2022-10-22T07:40:40;1.08;;;0.55;;
20945;SDS011;10632;51.276;7.116;2022-10-22T07:43:09;3.03;;;1.15;;
20945;SDS011;10632;51.276;7.116;2022-10-22T07:45:35;3.08;;;0.77;;
20945;SDS011;10632;51.276;7.116;2022-10-22T07:48:02;2.58;;;0.98;;
20945;SDS011;10632;51.276;7.116;2022-10-22T07:50:30;2.03;;;1.05;;
20945;SDS011;10632;51.276;7.116;2022-10-22T07:52:57;3.17;;;1.25;;
20945;SDS011;10632;51.276;7.116;2022-10-22T07:55:23;1.48;;;0.60;;
20945;SDS011;10632;51.276;7.116;2022-10-22T07:57:50;3.30;;;1.05;;
20945;SDS011;10632;51.276;7.116;2022-10-22T08:00:19;7.00;;;1.33;;
20945;SDS011;10632;51.276;7.116;2022-10-22T08:02:46;5.65;;;0.90;;
20945;SDS011;10632;51.276;7.116;2022-10-22T08:05:13;2.13;;;0.75;;
20945;SDS011;10632;51.276;7.116;2022-10-22T08:07:40;2.17;;;0.90;;
20945;SDS011;10632;51.276;7.116;2022-10-22T08:10:08;6.10;;;0.80;;
20945;SDS011;10632;51.276;7.116;2022-10-22T08:12:35;1.83;;;0.82;;
20945;SDS011;10632;51.276;7.116;2022-10-22T08:15:03;2.85;;;0.80;;
20945;SDS011;10632;51.276;7.116;2022-10-22T08:17:32;2.28;;;0.82;;
20945;SDS011;10632;51.276;7.116;2022-10-22T08:19:59;1.90;;;0.68;;
20945;SDS011;10632;51.276;7.116;2022-10-22T08:22:26;4.38;;;0.55;;
20945;SDS011;10632;51.276;7.116;2022-10-22T08:24:53;9.30;;;1.00;;
20945;SDS011;10632;51.276;7.116;2022-10-22T08:27:20;2.45;;;0.90;;
20945;SDS011;10632;51.276;7.116;2022-10-22T08:29:47;1.67;;;0.68;;
20945;SDS011;10632;51.276;7.116;2022-10-22T08:32:14;6.65;;;0.90;;
20945;SDS011;10632;51.276;7.116;2022-10-22T08:34:42;1.55;;;0.80;;
20945;SDS011;10632;51.276;7.116;2022-10-22T08:37:09;0.73;;;0.40;;
20945;SDS011;10632;51.276;7.116;2022-10-22T08:39:38;2.22;;;0.90;;
20945;SDS011;10632;51.276;7.116;2022-10-22T08:42:07;5.55;;;1.00;;
20945;SDS011;10632;51.276;7.116;2022-10-22T08:44:56;1.27;;;0.70;;
20945;SDS011;10632;51.276;7.116;2022-10-22T08:47:37;2.88;;;0.80;;
20945;SDS011;10632;51.276;7.116;2022-10-22T08:50:15;4.75;;;1.08;;
20945;SDS011;10632;51.276;7.116;2022-10-22T08:52:45;0.80;;;0.47;;
20945;SDS011;10632;51.276;7.116;2022-10-22T08:55:16;4.22;;;0.90;;
20945;SDS011;10632;51.276;7.116;2022-10-22T08:57:51;1.70;;;0.60;;
20945;SDS011;10632;51.276;7.116;2022-10-22T09:00:27;3.00;;;0.80;;
20945;SDS011;10632;51.276;7.116;2022-10-22T09:03:04;2.33;;;0.82;;
20945;SDS011;10632;51.276;7.116;2022-10-22T09:05:44;4.47;;;0.50;;
20945;SDS011;10632;51.276;7.116;2022-10-22T09:08:16;1.33;;;0.75;;
20945;SDS011;10632;51.276;7.116;2022-10-22T09:10:45;1.05;;;0.60;;
20945;SDS011;10632;51.276;7.116;2022-10-22T09:13:15;1.45;;;0.52;;
20945;SDS011;10632;51.276;7.116;2022-10-22T09:15:44;4.10;;;0.85;;
20945;SDS011;10632;51.276;7.116;2022-10-22T09:18:18;2.58;;;0.75;;
20945;SDS011;10632;51.276;7.116;2022-10-22T09:20:53;2.63;;;1.15;;
20945;SDS011;10632;51.276;7.116;2022-10-22T09:23:27;2.17;;;0.93;;
20945;SDS011;10632;51.276;7.116;2022-10-22T09:25:59;1.27;;;0.60;;
20945;SDS011;10632;51.276;7.116;2022-10-22T09:28:26;0.85;;;0.50;;
20945;SDS011;10632;51.276;7.116;2022-10-22T09:30:53;4.22;;;0.90;;
20945;SDS011;10632;51.276;7.116;2022-10-22T09:33:22;3.47;;;1.05;;
20945;SDS011;10632;51.276;7.116;2022-10-22T09:35:51;3.05;;;0.63;;
20945;SDS011;10632;51.276;7.116;2022-10-22T09:38:22;1.52;;;0.82;;
20945;SDS011;10632;51.276;7.116;2022-10-22T09:40:54;2.78;;;0.63;;
20945;SDS011;10632;51.276;7.116;2022-10-22T09:43:22;6.60;;;0.63;;
20945;SDS011;10632;51.276;7.116;2022-10-22T09:45:54;2.30;;;0.80;;
20945;SDS011;10632;51.276;7.116;2022-10-22T09:48:22;2.58;;;0.70;;
20945;SDS011;10632;51.276;7.116;2022-10-22T09:50:57;2.05;;;1.15;;
20945;SDS011;10632;51.276;7.116;2022-10-22T09:53:29;3.28;;;0.80;;
20945;SDS011;10632;51.276;7.116;2022-10-22T09:55:57;1.65;;;0.65;;
20945;SDS011;10632;51.276;7.116;2022-10-22T09:58:26;3.63;;;0.63;;
20945;SDS011;10632;51.276;7.116;2022-10-22T10:00:54;2.40;;;0.73;;
20945;SDS011;10632;51.276;7.116;2022-10-22T10:03:24;1.85;;;0.63;;
20945;SDS011;10632;51.276;7.116;2022-10-22T10:05:55;1.45;;;0.65;;
20945;SDS011;10632;51.276;7.116;2022-10-22T10:08:25;5.63;;;0.60;;
20945;SDS011;10632;51.276;7.116;2022-10-22T10:10:53;0.88;;;0.43;;
20945;SDS011;10632;51.276;7.116;2022-10-22T10:13:34;0.70;;;0.30;;
20945;SDS011;10632;51.276;7.116;2022-10-22T10:16:12;0.98;;;0.50;;
20945;SDS011;10632;51.276;7.116;2022-10-22T10:18:57;0.95;;;0.52;;
20945;SDS011;10632;51.276;7.116;2022-10-22T10:21:48;1.60;;;0.70;;
20945;SDS011;10632;51.276;7.116;2022-10-22T10:24:22;2.22;;;0.70;;
20945;SDS011;10632;51.276;7.116;2022-10-22T10:26:57;1.40;;;0.45;;
20945;SDS011;10632;51.276;7.116;2022-10-22T10:29:32;3.80;;;0.82;;
20945;SDS011;10632;51.276;7.116;2022-10-22T10:32:11;1.73;;;0.80;;
20945;SDS011;10632;51.276;7.116;2022-10-22T10:34:51;1.15;;;0.60;;
20945;SDS011;10632;51.276;7.116;2022-10-22T10:37:31;1.45;;;0.50;;
20945;SDS011;10632;51.276;7.116;2022-10-22T10:40:14;3.40;;;0.68;;
20945;SDS011;10632;51.276;7.116;2022-10-22T10:42:50;2.60;;;0.80;;
20945;SDS011;10632;51.276;7.116;2022-10-22T10:45:21;0.80;;;0.55;;
20945;SDS011;10632;51.276;7.116;2022-10-22T10:48:00;1.65;;;0.70;;
20945;SDS011;10632;51.276;7.116;2022-10-22T10:50:41;1.92;;;0.32;;
20945;SDS011;10632;51.276;7.116;2022-10-22T10:53:19;1.13;;;0.30;;
20945;SDS011;10632;51.276;7.116;2022-10-22T10:55:53;1.63;;;0.50;;
20945;SDS011;10632;51.276;7.116;2022-10-22T10:58:30;1.45;;;0.50;;
20945;SDS011;10632;51.276;7.116;2022-10-22T11:01:08;0.40;;;0.30;;
20945;SDS011;10632;51.276;7.116;2022-10-22T11:06:41;0.32;;;0.15;;
20945;SDS011;10632;51.276;7.116;2022-10-22T11:09:13;0.55;;;0.30;;
20945;SDS011;10632;51.276;7.116;2022-10-22T11:11:49;1.27;;;0.50;;
20945;SDS011;10632;51.276;7.116;2022-10-22T11:14:20;1.63;;;0.50;;
20945;SDS011;10632;51.276;7.116;2022-10-22T11:16:52;1.38;;;0.35;;
20945;SDS011;10632;51.276;7.116;2022-10-22T11:19:26;0.73;;;0.40;;
20945;SDS011;10632;51.276;7.116;2022-10-22T11:22:00;0.60;;;0.30;;
20945;SDS011;10632;51.276;7.116;2022-10-22T11:24:34;1.00;;;0.30;;
20945;SDS011;10632;51.276;7.116;2022-10-22T11:27:05;0.70;;;0.15;;
20945;SDS011;10632;51.276;7.116;2022-10-22T11:29:42;0.82;;;0.40;;
20945;SDS011;10632;51.276;7.116;2022-10-22T11:32:13;1.83;;;0.10;;
20945;SDS011;10632;51.276;7.116;2022-10-22T11:34:45;1.40;;;0.40;;
20945;SDS011;10632;51.276;7.116;2022-10-22T11:37:15;0.52;;;0.22;;
20945;SDS011;10632;51.276;7.116;2022-10-22T11:39:46;0.35;;;0.20;;
20945;SDS011;10632;51.276;7.116;2022-10-22T11:42:17;0.75;;;0.40;;
20945;SDS011;10632;51.276;7.116;2022-10-22T11:44:46;1.65;;;0.45;;
20945;SDS011;10632;51.276;7.116;2022-10-22T11:47:23;2.45;;;0.40;;
20945;SDS011;10632;51.276;7.116;2022-10-22T11:49:54;1.45;;;0.30;;
20945;SDS011;10632;51.276;7.116;2022-10-22T11:52:24;0.45;;;0.28;;
20945;SDS011;10632;51.276;7.116;2022-10-22T11:55:26;1.50;;;0.30;;
20945;SDS011;10632;51.276;7.116;2022-10-22T11:57:59;2.20;;;0.50;;
20945;SDS011;10632;51.276;7.116;2022-10-22T12:00:32;3.53;;;0.30;;
20945;SDS011;10632;51.276;7.116;2022-10-22T12:03:02;1.75;;;0.40;;
20945;SDS011;10632;51.276;7.116;2022-10-22T12:05:39;3.83;;;0.28;;
20945;SDS011;10632;51.276;7.116;2022-10-22T12:08:19;0.82;;;0.45;;
20945;SDS011;10632;51.276;7.116;2022-10-22T12:10:56;1.02;;;0.20;;
20945;SDS011;10632;51.276;7.116;2022-10-22T12:16:44;0.35;;;0.17;;
20945;SDS011;10632;51.276;7.116;2022-10-22T12:19:14;0.57;;;0.10;;
20945;SDS011;10632;51.276;7.116;2022-10-22T12:21:44;0.38;;;0.20;;
20945;SDS011;10632;51.276;7.116;2022-10-22T12:24:14;0.55;;;0.15;;
20945;SDS011;10632;51.276;7.116;2022-10-22T12:26:44;0.47;;;0.20;;
20945;SDS011;10632;51.276;7.116;2022-10-22T12:29:16;0.30;;;0.05;;
20945;SDS011;10632;51.276;7.116;2022-10-22T12:31:45;0.20;;;0.13;;
20945;SDS011;10632;51.276;7.116;2022-10-22T12:34:13;0.45;;;0.20;;
20945;SDS011;10632;51.276;7.116;2022-10-22T12:36:41;0.45;;;0.15;;
20945;SDS011;10632;51.276;7.116;2022-10-22T12:39:09;0.55;;;0.20;;
20945;SDS011;10632;51.276;7.116;2022-10-22T12:41:39;0.32;;;0.22;;
20945;SDS011;10632;51.276;7.116;2022-10-22T12:44:09;0.88;;;0.30;;
20945;SDS011;10632;51.276;7.116;2022-10-22T12:46:37;0.52;;;0.20;;
20945;SDS011;10632;51.276;7.116;2022-10-22T12:49:05;0.10;;;0.10;;
20945;SDS011;10632;51.276;7.116;2022-10-22T12:51:38;2.25;;;0.30;;
20945;SDS011;10632;51.276;7.116;2022-10-22T12:54:08;1.15;;;0.35;;
20945;SDS011;10632;51.276;7.116;2022-10-22T12:56:40;0.52;;;0.13;;
20945;SDS011;10632;51.276;7.116;2022-10-22T12:59:10;0.10;;;0.10;;
20945;SDS011;10632;51.276;7.116;2022-10-22T13:01:43;4.78;;;0.32;;
20945;SDS011;10632;51.276;7.116;2022-10-22T13:04:21;1.38;;;0.32;;
20945;SDS011;10632;51.276;7.116;2022-10-22T13:07:03;2.25;;;0.20;;
20945;SDS011;10632;51.276;7.116;2022-10-22T13:09:40;5.00;;;0.40;;
20945;SDS011;10632;51.276;7.116;2022-10-22T13:12:09;0.40;;;0.17;;
20945;SDS011;10632;51.276;7.116;2022-10-22T13:14:42;0.35;;;0.15;;
20945;SDS011;10632;51.276;7.116;2022-10-22T13:17:11;2.33;;;0.25;;
20945;SDS011;10632;51.276;7.116;2022-10-22T13:19:44;0.30;;;0.10;;
20945;SDS011;10632;51.276;7.116;2022-10-22T13:22:28;0.40;;;0.20;;
20945;SDS011;10632;51.276;7.116;2022-10-22T13:24:57;0.77;;;0.20;;
20945;SDS011;10632;51.276;7.116;2022-10-22T13:27:28;0.60;;;0.10;;
20945;SDS011;10632;51.276;7.116;2022-10-22T13:29:59;0.90;;;0.40;;
20945;SDS011;10632;51.276;7.116;2022-10-22T13:32:34;0.60;;;0.30;;
20945;SDS011;10632;51.276;7.116;2022-10-22T13:35:01;0.50;;;0.20;;
20945;SDS011;10632;51.276;7.116;2022-10-22T13:37:30;0.95;;;0.30;;
20945;SDS011;10632;51.276;7.116;2022-10-22T13:39:59;4.57;;;0.20;;
20945;SDS011;10632;51.276;7.116;2022-10-22T13:42:26;0.40;;;0.17;;
20945;SDS011;10632;51.276;7.116;2022-10-22T13:44:53;0.10;;;0.00;;
20945;SDS011;10632;51.276;7.116;2022-10-22T13:47:24;0.57;;;0.28;;
20945;SDS011;10632;51.276;7.116;2022-10-22T13:49:52;1.02;;;0.30;;
20945;SDS011;10632;51.276;7.116;2022-10-22T13:52:26;0.55;;;0.10;;
20945;SDS011;10632;51.276;7.116;2022-10-22T13:54:59;2.97;;;0.28;;
20945;SDS011;10632;51.276;7.116;2022-10-22T13:57:26;3.20;;;0.95;;
20945;SDS011;10632;51.276;7.116;2022-10-22T13:59:54;1.65;;;0.40;;
20945;SDS011;10632;51.276;7.116;2022-10-22T14:02:21;0.28;;;0.20;;
20945;SDS011;10632;51.276;7.116;2022-10-22T14:04:50;1.33;;;0.73;;
20945;SDS011;10632;51.276;7.116;2022-10-22T14:07:17;0.45;;;0.15;;
20945;SDS011;10632;51.276;7.116;2022-10-22T14:09:47;1.45;;;0.32;;
20945;SDS011;10632;51.276;7.116;2022-10-22T14:12:15;1.05;;;0.20;;
20945;SDS011;10632;51.276;7.116;2022-10-22T14:14:42;2.33;;;0.30;;
20945;SDS011;10632;51.276;7.116;2022-10-22T14:17:10;3.33;;;0.30;;
20945;SDS011;10632;51.276;7.116;2022-10-22T14:19:43;1.23;;;0.35;;
20945;SDS011;10632;51.276;7.116;2022-10-22T14:22:14;0.70;;;0.25;;
20945;SDS011;10632;51.276;7.116;2022-10-22T14:24:42;0.45;;;0.22;;
20945;SDS011;10632;51.276;7.116;2022-10-22T14:27:13;0.73;;;0.35;;
20945;SDS011;10632;51.276;7.116;2022-10-22T14:29:40;4.68;;;0.30;;
20945;SDS011;10632;51.276;7.116;2022-10-22T14:32:14;4.03;;;0.20;;
20945;SDS011;10632;51.276;7.116;2022-10-22T14:34:50;0.15;;;0.15;;
20945;SDS011;10632;51.276;7.116;2022-10-22T14:37:19;0.70;;;0.30;;
20945;SDS011;10632;51.276;7.116;2022-10-22T14:39:50;0.47;;;0.17;;
20945;SDS011;10632;51.276;7.116;2022-10-22T14:42:24;0.43;;;0.20;;
20945;SDS011;10632;51.276;7.116;2022-10-22T14:44:55;0.20;;;0.08;;
20945;SDS011;10632;51.276;7.116;2022-10-22T14:47:22;0.17;;;0.10;;
20945;SDS011;10632;51.276;7.116;2022-10-22T14:49:49;0.90;;;0.20;;
20945;SDS011;10632;51.276;7.116;2022-10-22T14:52:16;0.38;;;0.15;;
20945;SDS011;10632;51.276;7.116;2022-10-22T14:54:45;0.93;;;0.28;;
20945;SDS011;10632;51.276;7.116;2022-10-22T14:57:15;1.65;;;0.30;;
20945;SDS011;10632;51.276;7.116;2022-10-22T14:59:42;0.65;;;0.20;;
20945;SDS011;10632;51.276;7.116;2022-10-22T15:02:10;1.90;;;0.45;;
20945;SDS011;10632;51.276;7.116;2022-10-22T15:04:38;0.93;;;0.25;;
20945;SDS011;10632;51.276;7.116;2022-10-22T15:07:08;0.60;;;0.30;;
20945;SDS011;10632;51.276;7.116;2022-10-22T15:09:36;9.43;;;0.82;;
20945;SDS011;10632;51.276;7.116;2022-10-22T15:12:08;0.70;;;0.30;;